• Join FlightAware (Why Join?)
  • Login
  • US Flag GB Flag 
08:32 EDT


 

Airport Tracker/Info


-or-


 

Live Flight TrackerFlight Track Log ✈ N790CA ✈ 04-May-2013 ✈ KCAE - KSRQ

Flight Track Log - Related Links

Times and Time Zones

All times are in EDT time to prevent confusion due to time zone crossing. See the N790CA flight status page for this flight to view local times or setup timezone preferences in your user account.

Time Position Orientation Groundspeed Altitude Reporting Facility
EDT Latitude Longitude Course Direction KTS MPH feet Rate Location/Type
12:32 33.8444 -81.0972 188° South 129 148 5,400  Level Jacksonville Center
12:33 33.8092 -81.0978 181° South 129 148 7,000 1,740 Climbing Jacksonville Center
12:34 33.7653 -81.1039 187° South 135 155 8,900 1,620 Climbing Jacksonville Center
12:35 33.5668 -81.1833 203° Southwest  Level FlightAware Approximate
12:35 33.7239 -81.1247 203° Southwest 152 175 10,300  Level Jacksonville Center
12:36 33.5037 -81.2148 203° Southwest  Level FlightAware Approximate
12:36 33.6844 -81.1428 201° Southwest 157 181 11,700  Level Jacksonville Center
12:37 33.6408 -81.1661 204° Southwest 163 188 13,100 1,320 Climbing Jacksonville Center
12:38 33.5975 -81.1894 204° Southwest 170 196 14,400 1,260 Climbing Jacksonville Center
12:39 33.5600 -81.2053 199° South 164 189 15,700 1,320 Climbing Jacksonville Center
12:40 33.5144 -81.2283 203° Southwest 169 194 17,100 1,380 Climbing Jacksonville Center
12:41 33.4708 -81.2467 199° South 169 194 18,500 1,380 Climbing Jacksonville Center
12:42 33.4275 -81.2700 204° Southwest 169 194 19,900 1,380 Climbing Jacksonville Center
12:43 33.3839 -81.2906 201° Southwest 175 201 21,300 1,380 Climbing Jacksonville Center
12:44 33.3403 -81.3114 202° Southwest 170 196 22,700 1,260 Climbing Jacksonville Center
12:45 33.2967 -81.3344 204° Southwest 170 196 23,900 1,260 Climbing Jacksonville Center
12:46 33.2511 -81.3550 201° Southwest 170 196 25,300 1,200 Climbing Jacksonville Center
12:47 33.2075 -81.3758 202° Southwest 175 201 26,400 1,020 Climbing Jacksonville Center
12:48 33.1597 -81.4014 204° Southwest 175 201 27,400 900 Climbing Jacksonville Center
12:49 33.1119 -81.4244 202° Southwest 181 208 28,300 900 Climbing Jacksonville Center
12:50 33.0600 -81.4500 202° Southwest 193 222 29,200 720 Climbing Jacksonville Center
12:51 33.0081 -81.4683 196° South 193 222 29,800 360 Climbing Jacksonville Center
12:52 32.9542 -81.4989 205° Southwest 204 235 30,000 60 Climbing Jacksonville Center
12:53 32.8942 -81.5294 203° Southwest 224 258 30,000  Level Jacksonville Center
12:54 32.8358 -81.5625 205° Southwest 231 266 30,000  Level Jacksonville Center
12:55 32.7756 -81.5881 200° South 236 272 30,000  Level Jacksonville Center
12:56 32.7092 -81.6161 200° South 236 272 30,000  Level Jacksonville Center
12:57 32.6447 -81.6492 203° Southwest 254 292 30,000  Level Jacksonville Center
12:58 32.5758 -81.6525 182° South 271 312 30,000  Level Jacksonville Center
12:59 32.4925 -81.6561 182° South 278 320 30,000  Level Jacksonville Center
13:00 32.4175 -81.6719 190° South 278 320 30,000  Level Jacksonville Center
13:01 32.3508 -81.6900 193° South 278 320 30,000  Level Jacksonville Center
13:02 32.2675 -81.7083 191° South 283 326 30,000  Level Jacksonville Center
13:03 32.1967 -81.7239 191° South 283 326 30,000  Level Jacksonville Center
13:04 32.1133 -81.7422 191° South 277 319 30,000  Level Jacksonville Center
13:05 32.0361 -81.7578 190° South 277 319 30,000  Level Jacksonville Center
13:06 31.9675 -81.7733 191° South 277 319 30,000  Level Jacksonville Center
13:07 31.8842 -81.7939 192° South 277 319 30,000  Level Jacksonville Center
13:08 31.8069 -81.8119 191° South 277 319 30,000  Level Jacksonville Center
13:09 31.7383 -81.8275 191° South 277 319 30,000  Level Jacksonville Center
13:10 31.6547 -81.8431 189° South 277 319 30,000  Level Jacksonville Center
13:11 31.5861 -81.8608 192° South 277 319 30,000  Level Jacksonville Center
13:12 31.5006 -81.8789 190° South 277 319 30,000  Level Jacksonville Center
13:13 31.4236 -81.8944 190° South 277 319 30,000  Level Jacksonville Center
13:14 31.3547 -81.9122 192° South 277 319 30,000  Level Jacksonville Center
13:15 31.2775 -81.9325 193° South 282 325 30,000  Level Jacksonville Center
13:16 31.2025 -81.9453 188° South 282 325 30,000  Level Jacksonville Center
13:17 31.1275 -81.9631 191° South 277 319 30,000  Level Jacksonville Center
13:18 31.0483 -81.9808 191° South 277 319 30,000  Level Jacksonville Center
13:19 30.9733 -81.9986 191° South 277 319 30,000 -420 Level Jacksonville Center
13:20 30.8942 -82.0161 191° South 282 325 29,200 -900 Descending Jacksonville Center
13:21 30.8128 -82.0314 189° South 295 339 28,300 -900 Descending Jacksonville Center
13:22 30.7250 -82.0467 189° South 300 345 27,500 -900 Descending Jacksonville Center
13:23 30.6372 -82.0306 171° South 306 352 26,600 -960 Descending Jacksonville Center
13:24 30.5392 -82.0075 169° South 317 365 25,600 -900 Descending Jacksonville Center
13:25 30.4617 -81.9911 170° South 323 372 24,900 -780 Descending Jacksonville Center
13:26 30.3739 -81.9775 172° South 323 372 24,100 -600 Descending Jacksonville Center
13:27 30.2947 -81.9953 191° South 297 342 23,800 -600 Descending Jacksonville Center
13:28 30.2197 -82.0297 202° Southwest 292 336 22,900 -900 Descending Jacksonville Center
13:29 30.1447 -82.0639 202° Southwest 292 336 22,100 -900 Descending Jacksonville Center
13:30 30.0700 -82.0981 202° Southwest 292 336 21,200 -660 Descending Jacksonville Center
13:31 29.9908 -82.1394 204° Southwest 292 336 20,800 -660 Descending Jacksonville Center
13:32 29.9178 -82.1736 202° Southwest 292 336 19,900 -900 Descending Jacksonville Center
13:33 29.8408 -82.2053 200° South 292 336 19,000 -960 Descending Jacksonville Center
13:34 29.7681 -82.2417 203° Southwest 292 336 18,000 -900 Descending Jacksonville Center
13:35 29.7014 -82.2686 199° South 292 336 17,200 -480 Descending Jacksonville Center
13:36 29.6219 -82.2619 176° South 281 323 17,100 -60 Descending Jacksonville Center
13:37 29.5467 -82.2503 172° South 275 316 17,100 -420 Level Jacksonville Center
13:38 29.4714 -82.2414 174° South 275 316 16,300 -720 Descending Jacksonville Center
13:39 29.3922 -82.2275 171° South 275 316 15,700 -660 Descending Jacksonville Center
13:40 29.3128 -82.2161 173° South 280 322 15,000 -720 Descending Jacksonville Center
13:41 29.2333 -82.2047 173° South 285 328 14,300 -780 Descending Jacksonville Center
13:42 29.1561 -82.1911 171° South 285 328 13,500 -780 Descending Jacksonville Center
13:43 29.0789 -82.1822 174° South 290 334 12,800 -660 Descending Jacksonville Center
13:44 29.0014 -82.1686 171° South 290 334 12,200 -600 Descending Jacksonville Center
13:45 28.9242 -82.1547 171° South 290 334 11,600 -600 Descending Jacksonville Center
13:46 28.8489 -82.1436 173° South 285 328 11,100 -180 Descending Jacksonville Center
13:48 28.7000 -82.1167 171° South 264 304 11,100  Level Tampa TRACON
13:49 28.6333 -82.1167 180° South 261 300 11,100  Level Tampa TRACON
13:50 28.5667 -82.1000 168° South 262 302 11,100  Level Tampa TRACON
13:51 28.4833 -82.0833 170° South 262 302 11,100  Level Tampa TRACON
13:52 28.4167 -82.0833 180° South 262 302 11,100  Level Tampa TRACON
13:53 28.3500 -82.0833 180° South 257 296 11,100  Level Tampa TRACON
13:54 28.2833 -82.1000 192° South 257 296 11,100 -60 Level Tampa TRACON
13:55 28.2000 -82.1167 190° South 256 295 11,000 -60 Descending Tampa TRACON
13:56 28.1333 -82.1333 192° South 255 293 11,000  Level Tampa TRACON
13:57 28.0667 -82.1667 204° Southwest 252 290 11,000 -120 Level Tampa TRACON
13:58 28.0000 -82.2000 204° Southwest 253 291 10,800 -600 Descending Tampa TRACON
13:59 27.9333 -82.2333 204° Southwest 257 296 9,900 -900 Descending Tampa TRACON
14:00 27.8667 -82.2667 204° Southwest 253 291 9,000 -900 Descending Tampa TRACON
14:01 27.8167 -82.3000 211° Southwest 251 289 8,100 -900 Descending Tampa TRACON
14:02 27.7333 -82.3000 180° South 247 284 7,300 -900 Descending Tampa TRACON
14:03 27.6667 -82.3000 180° South 244 281 6,400 -720 Descending Tampa TRACON
14:04 27.6167 -82.2833 164° South 225 259 6,000 -420 Descending Tampa TRACON
14:05 27.5667 -82.3000 196° South 208 239 5,600 -540 Descending Tampa TRACON
14:06 27.5000 -82.3167 193° South 198 228 5,000 -300 Descending Tampa TRACON
14:07 27.4667 -82.3333 204° Southwest 175 201 5,000 -120 Level Tampa TRACON
14:08 27.4167 -82.3500 196° South 167 192 4,800 -660 Descending Tampa TRACON
14:09 27.3667 -82.3833 211° Southwest 192 221 3,700 -1,080 Descending Tampa TRACON
14:10 27.3167 -82.3833 180° South 189 217 2,700 -900 Descending Tampa TRACON
14:11 27.3000 -82.4167 241° Southwest 145 167 1,900 -420 Descending Tampa TRACON
14:12 27.3000 -82.4500 270° West 97 112 1,900  Level Tampa TRACON
14:13 27.3167 -82.4667 318° Northwest 87 100 1,900 -240 Level Tampa TRACON
14:14 27.3333 -82.4833 318° Northwest 86 99 1,500 -480 Descending Tampa TRACON
14:15 27.3500 -82.5167 299° West 102 117 900 -600 Descending Tampa TRACON
14:16 27.3833 -82.5333 336° Northwest 100 115 400 -540 Descending Tampa TRACON